sensor_id;sensor_type;location;lat;lon;timestamp;temperature;humidity
48376;DHT22;34178;50.904;11.560;2023-03-01T00:01:17;-2.70;99.90
48376;DHT22;34178;50.904;11.560;2023-03-01T00:03:43;-2.70;99.90
48376;DHT22;34178;50.904;11.560;2023-03-01T00:06:09;-2.60;99.90
48376;DHT22;34178;50.904;11.560;2023-03-01T00:08:35;-2.70;99.90
48376;DHT22;34178;50.904;11.560;2023-03-01T00:11:12;-2.60;99.90
48376;DHT22;34178;50.904;11.560;2023-03-01T00:13:39;-2.60;99.90
48376;DHT22;34178;50.904;11.560;2023-03-01T00:16:06;-2.60;99.90
48376;DHT22;34178;50.904;11.560;2023-03-01T00:18:32;-2.60;99.90
48376;DHT22;34178;50.904;11.560;2023-03-01T00:20:58;-2.50;99.90
48376;DHT22;34178;50.904;11.560;2023-03-01T00:23:24;-2.50;99.90
48376;DHT22;34178;50.904;11.560;2023-03-01T00:25:50;-2.50;99.90
48376;DHT22;34178;50.904;11.560;2023-03-01T00:28:17;-2.60;99.90
48376;DHT22;34178;50.904;11.560;2023-03-01T00:30:44;-2.50;99.90
48376;DHT22;34178;50.904;11.560;2023-03-01T00:33:10;-2.60;99.90
48376;DHT22;34178;50.904;11.560;2023-03-01T00:35:35;-2.60;99.90
48376;DHT22;34178;50.904;11.560;2023-03-01T00:38:01;-2.60;99.90
48376;DHT22;34178;50.904;11.560;2023-03-01T00:40:28;-2.60;99.90
48376;DHT22;34178;50.904;11.560;2023-03-01T00:42:54;-2.70;99.90
48376;DHT22;34178;50.904;11.560;2023-03-01T00:45:20;-2.70;99.90
48376;DHT22;34178;50.904;11.560;2023-03-01T00:47:46;-2.70;99.90
48376;DHT22;34178;50.904;11.560;2023-03-01T00:50:13;-2.70;99.90
48376;DHT22;34178;50.904;11.560;2023-03-01T00:52:38;-2.70;99.90
48376;DHT22;34178;50.904;11.560;2023-03-01T00:55:05;-2.70;99.90
48376;DHT22;34178;50.904;11.560;2023-03-01T00:57:31;-2.70;99.90
48376;DHT22;34178;50.904;11.560;2023-03-01T00:59:57;-2.60;99.90
48376;DHT22;34178;50.904;11.560;2023-03-01T01:02:23;-2.70;99.90
48376;DHT22;34178;50.904;11.560;2023-03-01T01:04:49;-2.60;99.90
48376;DHT22;34178;50.904;11.560;2023-03-01T01:07:15;-2.60;99.90
48376;DHT22;34178;50.904;11.560;2023-03-01T01:09:41;-2.60;99.90
48376;DHT22;34178;50.904;11.560;2023-03-01T01:12:06;-2.70;99.90
48376;DHT22;34178;50.904;11.560;2023-03-01T01:14:33;-2.60;99.90
48376;DHT22;34178;50.904;11.560;2023-03-01T01:16:58;-2.50;99.90
48376;DHT22;34178;50.904;11.560;2023-03-01T01:19:25;-2.40;99.90
48376;DHT22;34178;50.904;11.560;2023-03-01T01:21:51;-2.40;99.90
48376;DHT22;34178;50.904;11.560;2023-03-01T01:24:17;-2.40;99.90
48376;DHT22;34178;50.904;11.560;2023-03-01T01:26:43;-2.30;99.90
48376;DHT22;34178;50.904;11.560;2023-03-01T01:29:10;-2.30;99.90
48376;DHT22;34178;50.904;11.560;2023-03-01T01:31:38;-2.30;99.90
48376;DHT22;34178;50.904;11.560;2023-03-01T01:34:05;-2.40;99.90
48376;DHT22;34178;50.904;11.560;2023-03-01T01:36:32;-2.50;99.90
48376;DHT22;34178;50.904;11.560;2023-03-01T01:38:58;-2.60;99.90
48376;DHT22;34178;50.904;11.560;2023-03-01T01:41:25;-2.70;99.90
48376;DHT22;34178;50.904;11.560;2023-03-01T01:51:53;-3.00;99.90
48376;DHT22;34178;50.904;11.560;2023-03-01T01:54:28;-3.00;99.90
48376;DHT22;34178;50.904;11.560;2023-03-01T01:57:00;-3.00;99.90
48376;DHT22;34178;50.904;11.560;2023-03-01T01:59:28;-3.00;99.90
48376;DHT22;34178;50.904;11.560;2023-03-01T02:01:58;-3.10;99.90
48376;DHT22;34178;50.904;11.560;2023-03-01T02:04:24;-3.10;99.90
48376;DHT22;34178;50.904;11.560;2023-03-01T02:07:18;-3.20;99.90
48376;DHT22;34178;50.904;11.560;2023-03-01T02:09:47;-3.20;99.90
48376;DHT22;34178;50.904;11.560;2023-03-01T02:12:18;-3.20;99.90
48376;DHT22;34178;50.904;11.560;2023-03-01T02:14:44;-3.30;99.90
48376;DHT22;34178;50.904;11.560;2023-03-01T02:17:11;-3.30;99.90
48376;DHT22;34178;50.904;11.560;2023-03-01T02:28:06;-3.40;99.90
48376;DHT22;34178;50.904;11.560;2023-03-01T02:30:34;-3.40;99.90
48376;DHT22;34178;50.904;11.560;2023-03-01T02:33:02;-3.50;99.90
48376;DHT22;34178;50.904;11.560;2023-03-01T02:35:35;-3.50;99.90
48376;DHT22;34178;50.904;11.560;2023-03-01T02:38:02;-3.60;99.90
48376;DHT22;34178;50.904;11.560;2023-03-01T02:40:29;-3.60;99.90
48376;DHT22;34178;50.904;11.560;2023-03-01T02:42:58;-3.70;99.90
48376;DHT22;34178;50.904;11.560;2023-03-01T02:45:25;-3.70;99.90
48376;DHT22;34178;50.904;11.560;2023-03-01T02:47:54;-3.70;99.90
48376;DHT22;34178;50.904;11.560;2023-03-01T02:50:51;-3.70;99.90
48376;DHT22;34178;50.904;11.560;2023-03-01T02:53:23;-3.80;99.90
48376;DHT22;34178;50.904;11.560;2023-03-01T02:55:53;-3.80;99.90
48376;DHT22;34178;50.904;11.560;2023-03-01T02:58:19;-3.80;99.90
48376;DHT22;34178;50.904;11.560;2023-03-01T03:00:45;-3.80;99.90
48376;DHT22;34178;50.904;11.560;2023-03-01T03:03:17;-3.80;99.90
48376;DHT22;34178;50.904;11.560;2023-03-01T03:05:44;-3.90;99.90
48376;DHT22;34178;50.904;11.560;2023-03-01T03:08:10;-3.90;99.90
48376;DHT22;34178;50.904;11.560;2023-03-01T03:10:40;-4.00;99.90
48376;DHT22;34178;50.904;11.560;2023-03-01T03:13:12;-4.00;99.90
48376;DHT22;34178;50.904;11.560;2023-03-01T03:15:39;-4.00;99.90
48376;DHT22;34178;50.904;11.560;2023-03-01T03:18:10;-4.00;99.90
48376;DHT22;34178;50.904;11.560;2023-03-01T03:20:37;-4.00;99.90
48376;DHT22;34178;50.904;11.560;2023-03-01T03:23:03;-4.00;99.90
48376;DHT22;34178;50.904;11.560;2023-03-01T03:25:29;-4.00;99.90
48376;DHT22;34178;50.904;11.560;2023-03-01T03:27:56;-4.10;99.90
48376;DHT22;34178;50.904;11.560;2023-03-01T03:30:24;-4.00;99.90
48376;DHT22;34178;50.904;11.560;2023-03-01T03:32:51;-4.10;99.90
48376;DHT22;34178;50.904;11.560;2023-03-01T03:35:24;-4.10;99.90
48376;DHT22;34178;50.904;11.560;2023-03-01T03:37:51;-4.20;99.90
48376;DHT22;34178;50.904;11.560;2023-03-01T03:40:29;-4.20;99.90
48376;DHT22;34178;50.904;11.560;2023-03-01T03:42:55;-4.10;99.90
48376;DHT22;34178;50.904;11.560;2023-03-01T03:45:21;-4.10;99.90
48376;DHT22;34178;50.904;11.560;2023-03-01T03:47:47;-4.10;99.90
48376;DHT22;34178;50.904;11.560;2023-03-01T03:50:14;-4.20;99.90
48376;DHT22;34178;50.904;11.560;2023-03-01T03:52:40;-4.20;99.90
48376;DHT22;34178;50.904;11.560;2023-03-01T03:55:08;-4.30;99.90
48376;DHT22;34178;50.904;11.560;2023-03-01T03:57:40;-4.30;99.90
48376;DHT22;34178;50.904;11.560;2023-03-01T04:00:08;-4.30;99.90
48376;DHT22;34178;50.904;11.560;2023-03-01T04:02:41;-4.30;99.90
48376;DHT22;34178;50.904;11.560;2023-03-01T04:05:09;-4.30;99.90
48376;DHT22;34178;50.904;11.560;2023-03-01T04:07:36;-4.30;99.90
48376;DHT22;34178;50.904;11.560;2023-03-01T04:10:07;-4.30;99.90
48376;DHT22;34178;50.904;11.560;2023-03-01T04:12:34;-4.30;99.90
48376;DHT22;34178;50.904;11.560;2023-03-01T04:15:01;-4.40;99.90
48376;DHT22;34178;50.904;11.560;2023-03-01T04:17:42;-4.30;99.90
48376;DHT22;34178;50.904;11.560;2023-03-01T04:20:14;-4.30;99.90
48376;DHT22;34178;50.904;11.560;2023-03-01T04:22:43;-4.30;99.90
48376;DHT22;34178;50.904;11.560;2023-03-01T04:25:12;-4.20;99.90
48376;DHT22;34178;50.904;11.560;2023-03-01T04:27:40;-4.20;99.90
48376;DHT22;34178;50.904;11.560;2023-03-01T04:30:07;-4.30;99.90
48376;DHT22;34178;50.904;11.560;2023-03-01T04:32:33;-4.30;99.90
48376;DHT22;34178;50.904;11.560;2023-03-01T04:34:59;-4.30;99.90
48376;DHT22;34178;50.904;11.560;2023-03-01T04:37:25;-4.30;99.90
48376;DHT22;34178;50.904;11.560;2023-03-01T04:39:51;-4.30;99.90
48376;DHT22;34178;50.904;11.560;2023-03-01T04:42:17;-4.30;99.90
48376;DHT22;34178;50.904;11.560;2023-03-01T04:44:44;-4.30;99.90
48376;DHT22;34178;50.904;11.560;2023-03-01T04:47:10;-4.20;99.90
48376;DHT22;34178;50.904;11.560;2023-03-01T04:49:36;-4.30;99.90
48376;DHT22;34178;50.904;11.560;2023-03-01T04:52:02;-4.30;99.90
48376;DHT22;34178;50.904;11.560;2023-03-01T04:54:29;-4.30;99.90
48376;DHT22;34178;50.904;11.560;2023-03-01T04:56:55;-4.30;99.90
48376;DHT22;34178;50.904;11.560;2023-03-01T04:59:20;-4.30;99.90
48376;DHT22;34178;50.904;11.560;2023-03-01T05:01:52;-4.30;99.90
48376;DHT22;34178;50.904;11.560;2023-03-01T05:04:21;-4.30;99.90
48376;DHT22;34178;50.904;11.560;2023-03-01T05:06:47;-4.40;99.90
48376;DHT22;34178;50.904;11.560;2023-03-01T05:09:13;-4.50;99.90
48376;DHT22;34178;50.904;11.560;2023-03-01T05:11:38;-4.50;99.90
48376;DHT22;34178;50.904;11.560;2023-03-01T05:14:05;-4.50;99.90
48376;DHT22;34178;50.904;11.560;2023-03-01T05:16:31;-4.50;99.90
48376;DHT22;34178;50.904;11.560;2023-03-01T05:18:58;-4.50;99.90
48376;DHT22;34178;50.904;11.560;2023-03-01T05:21:24;-4.60;99.90
48376;DHT22;34178;50.904;11.560;2023-03-01T05:23:49;-4.60;99.90
48376;DHT22;34178;50.904;11.560;2023-03-01T05:26:17;-4.60;99.90
48376;DHT22;34178;50.904;11.560;2023-03-01T05:28:43;-4.60;99.90
48376;DHT22;34178;50.904;11.560;2023-03-01T05:31:09;-4.50;99.90
48376;DHT22;34178;50.904;11.560;2023-03-01T05:33:37;-4.50;99.90
48376;DHT22;34178;50.904;11.560;2023-03-01T05:36:03;-4.50;99.90
48376;DHT22;34178;50.904;11.560;2023-03-01T05:38:29;-4.60;99.90
48376;DHT22;34178;50.904;11.560;2023-03-01T05:40:55;-4.60;99.90
48376;DHT22;34178;50.904;11.560;2023-03-01T05:43:21;-4.60;99.90
48376;DHT22;34178;50.904;11.560;2023-03-01T05:45:46;-4.60;99.90
48376;DHT22;34178;50.904;11.560;2023-03-01T05:48:13;-4.60;99.90
48376;DHT22;34178;50.904;11.560;2023-03-01T05:50:44;-4.60;99.90
48376;DHT22;34178;50.904;11.560;2023-03-01T05:53:18;-4.60;99.90
48376;DHT22;34178;50.904;11.560;2023-03-01T05:55:44;-4.60;99.90
48376;DHT22;34178;50.904;11.560;2023-03-01T05:58:15;-4.70;99.90
48376;DHT22;34178;50.904;11.560;2023-03-01T06:00:42;-4.60;99.90
48376;DHT22;34178;50.904;11.560;2023-03-01T06:03:13;-4.70;99.90
48376;DHT22;34178;50.904;11.560;2023-03-01T06:05:40;-4.70;99.90
48376;DHT22;34178;50.904;11.560;2023-03-01T06:08:06;-4.60;99.90
48376;DHT22;34178;50.904;11.560;2023-03-01T06:10:32;-4.60;99.90
48376;DHT22;34178;50.904;11.560;2023-03-01T06:12:58;-4.70;99.90
48376;DHT22;34178;50.904;11.560;2023-03-01T06:15:24;-4.70;99.90
48376;DHT22;34178;50.904;11.560;2023-03-01T06:17:50;-4.70;99.90
48376;DHT22;34178;50.904;11.560;2023-03-01T06:20:21;-4.70;99.90
48376;DHT22;34178;50.904;11.560;2023-03-01T06:22:48;-4.70;99.90
48376;DHT22;34178;50.904;11.560;2023-03-01T06:25:16;-4.70;99.90
48376;DHT22;34178;50.904;11.560;2023-03-01T06:27:43;-4.60;99.90
48376;DHT22;34178;50.904;11.560;2023-03-01T06:30:11;-4.60;99.90
48376;DHT22;34178;50.904;11.560;2023-03-01T06:32:38;-4.50;99.90
48376;DHT22;34178;50.904;11.560;2023-03-01T06:35:08;-4.50;99.90
48376;DHT22;34178;50.904;11.560;2023-03-01T06:37:33;-4.50;99.90
48376;DHT22;34178;50.904;11.560;2023-03-01T06:40:01;-4.50;99.90
48376;DHT22;34178;50.904;11.560;2023-03-01T06:42:32;-4.50;99.90
48376;DHT22;34178;50.904;11.560;2023-03-01T06:44:57;-4.60;99.90
48376;DHT22;34178;50.904;11.560;2023-03-01T06:47:23;-4.50;99.90
48376;DHT22;34178;50.904;11.560;2023-03-01T06:49:49;-4.40;99.90
48376;DHT22;34178;50.904;11.560;2023-03-01T06:52:14;-4.30;99.90
48376;DHT22;34178;50.904;11.560;2023-03-01T06:54:40;-4.30;99.90
48376;DHT22;34178;50.904;11.560;2023-03-01T06:57:06;-4.40;99.90
48376;DHT22;34178;50.904;11.560;2023-03-01T06:59:31;-4.40;99.90
48376;DHT22;34178;50.904;11.560;2023-03-01T07:01:57;-4.30;99.90
48376;DHT22;34178;50.904;11.560;2023-03-01T07:04:22;-4.10;99.90
48376;DHT22;34178;50.904;11.560;2023-03-01T07:06:48;-4.00;99.90
48376;DHT22;34178;50.904;11.560;2023-03-01T07:09:23;-3.90;99.90
48376;DHT22;34178;50.904;11.560;2023-03-01T07:11:49;-3.90;99.90
48376;DHT22;34178;50.904;11.560;2023-03-01T07:14:16;-3.80;99.90
48376;DHT22;34178;50.904;11.560;2023-03-01T07:16:41;-3.70;99.90
48376;DHT22;34178;50.904;11.560;2023-03-01T07:19:07;-3.60;99.90
48376;DHT22;34178;50.904;11.560;2023-03-01T07:21:33;-3.50;99.90
48376;DHT22;34178;50.904;11.560;2023-03-01T07:23:58;-3.50;99.90
48376;DHT22;34178;50.904;11.560;2023-03-01T07:26:24;-3.40;99.90
48376;DHT22;34178;50.904;11.560;2023-03-01T07:28:50;-3.30;99.90
48376;DHT22;34178;50.904;11.560;2023-03-01T07:31:15;-3.30;99.90
48376;DHT22;34178;50.904;11.560;2023-03-01T07:33:41;-3.20;99.90
48376;DHT22;34178;50.904;11.560;2023-03-01T07:36:07;-3.10;99.90
48376;DHT22;34178;50.904;11.560;2023-03-01T07:38:33;-3.00;99.90
48376;DHT22;34178;50.904;11.560;2023-03-01T07:41:01;-2.90;99.90
48376;DHT22;34178;50.904;11.560;2023-03-01T07:43:30;-2.80;99.90
48376;DHT22;34178;50.904;11.560;2023-03-01T07:46:00;-2.70;99.90
48376;DHT22;34178;50.904;11.560;2023-03-01T07:48:27;-2.50;99.90
48376;DHT22;34178;50.904;11.560;2023-03-01T07:50:52;-2.40;99.90
48376;DHT22;34178;50.904;11.560;2023-03-01T07:53:18;-2.20;99.90
48376;DHT22;34178;50.904;11.560;2023-03-01T07:55:43;-2.00;99.90
48376;DHT22;34178;50.904;11.560;2023-03-01T07:58:09;-1.80;99.90
48376;DHT22;34178;50.904;11.560;2023-03-01T08:00:35;-1.70;99.90
48376;DHT22;34178;50.904;11.560;2023-03-01T08:03:01;-1.60;99.90
48376;DHT22;34178;50.904;11.560;2023-03-01T08:05:27;-1.50;99.90
48376;DHT22;34178;50.904;11.560;2023-03-01T08:07:53;-1.40;99.90
48376;DHT22;34178;50.904;11.560;2023-03-01T08:10:19;-1.40;99.90
48376;DHT22;34178;50.904;11.560;2023-03-01T08:12:45;-1.30;99.90
48376;DHT22;34178;50.904;11.560;2023-03-01T08:15:11;-1.20;99.90
48376;DHT22;34178;50.904;11.560;2023-03-01T08:17:36;-1.10;99.90
48376;DHT22;34178;50.904;11.560;2023-03-01T08:20:03;-1.00;99.90
48376;DHT22;34178;50.904;11.560;2023-03-01T08:22:29;-1.00;99.90
48376;DHT22;34178;50.904;11.560;2023-03-01T08:24:55;-0.90;99.90
48376;DHT22;34178;50.904;11.560;2023-03-01T08:27:21;-0.80;99.90
48376;DHT22;34178;50.904;11.560;2023-03-01T08:29:47;-0.70;99.90
48376;DHT22;34178;50.904;11.560;2023-03-01T08:32:12;-0.60;99.90
48376;DHT22;34178;50.904;11.560;2023-03-01T08:34:38;-0.50;99.90
48376;DHT22;34178;50.904;11.560;2023-03-01T08:37:04;-0.40;99.90
48376;DHT22;34178;50.904;11.560;2023-03-01T08:39:29;-0.30;99.90
48376;DHT22;34178;50.904;11.560;2023-03-01T08:41:55;-0.20;99.90
48376;DHT22;34178;50.904;11.560;2023-03-01T08:44:21;-0.10;99.90
48376;DHT22;34178;50.904;11.560;2023-03-01T08:46:47;0.00;99.90
48376;DHT22;34178;50.904;11.560;2023-03-01T08:49:17;0.10;99.90
48376;DHT22;34178;50.904;11.560;2023-03-01T08:51:44;0.20;99.90
48376;DHT22;34178;50.904;11.560;2023-03-01T08:54:12;0.30;99.90
48376;DHT22;34178;50.904;11.560;2023-03-01T08:56:40;0.50;99.90
48376;DHT22;34178;50.904;11.560;2023-03-01T08:59:06;0.50;99.90
48376;DHT22;34178;50.904;11.560;2023-03-01T09:01:32;0.60;99.90
48376;DHT22;34178;50.904;11.560;2023-03-01T09:03:57;0.70;99.90
48376;DHT22;34178;50.904;11.560;2023-03-01T09:06:23;0.80;99.90
48376;DHT22;34178;50.904;11.560;2023-03-01T09:08:50;0.90;99.90
48376;DHT22;34178;50.904;11.560;2023-03-01T09:11:18;1.00;99.90
48376;DHT22;34178;50.904;11.560;2023-03-01T09:13:45;1.00;99.90
48376;DHT22;34178;50.904;11.560;2023-03-01T09:16:13;1.10;99.90
48376;DHT22;34178;50.904;11.560;2023-03-01T09:18:39;1.20;99.90
48376;DHT22;34178;50.904;11.560;2023-03-01T09:21:13;1.30;99.90
48376;DHT22;34178;50.904;11.560;2023-03-01T09:23:42;1.40;99.90
48376;DHT22;34178;50.904;11.560;2023-03-01T09:26:10;1.40;99.90
48376;DHT22;34178;50.904;11.560;2023-03-01T09:28:37;1.40;99.90
48376;DHT22;34178;50.904;11.560;2023-03-01T09:31:03;1.50;99.90
48376;DHT22;34178;50.904;11.560;2023-03-01T09:33:30;1.50;99.90
48376;DHT22;34178;50.904;11.560;2023-03-01T09:36:04;1.60;99.90
48376;DHT22;34178;50.904;11.560;2023-03-01T09:38:31;1.70;99.90
48376;DHT22;34178;50.904;11.560;2023-03-01T09:40:57;1.70;99.90
48376;DHT22;34178;50.904;11.560;2023-03-01T09:43:56;1.80;99.90
48376;DHT22;34178;50.904;11.560;2023-03-01T09:46:25;1.90;99.90
48376;DHT22;34178;50.904;11.560;2023-03-01T09:48:56;1.90;99.90
48376;DHT22;34178;50.904;11.560;2023-03-01T09:51:33;2.00;99.90
48376;DHT22;34178;50.904;11.560;2023-03-01T09:54:01;2.10;99.90
48376;DHT22;34178;50.904;11.560;2023-03-01T09:56:46;2.20;99.90
48376;DHT22;34178;50.904;11.560;2023-03-01T09:59:23;2.30;99.90
48376;DHT22;34178;50.904;11.560;2023-03-01T10:02:07;2.30;99.90
48376;DHT22;34178;50.904;11.560;2023-03-01T10:04:49;2.40;99.90
48376;DHT22;34178;50.904;11.560;2023-03-01T10:07:32;2.60;99.90
48376;DHT22;34178;50.904;11.560;2023-03-01T10:10:05;2.60;99.90
48376;DHT22;34178;50.904;11.560;2023-03-01T10:12:39;2.70;99.90
48376;DHT22;34178;50.904;11.560;2023-03-01T10:15:16;2.70;99.90
48376;DHT22;34178;50.904;11.560;2023-03-01T10:18:00;2.80;99.90
48376;DHT22;34178;50.904;11.560;2023-03-01T10:20:46;2.90;99.90
48376;DHT22;34178;50.904;11.560;2023-03-01T10:23:12;2.90;99.90
48376;DHT22;34178;50.904;11.560;2023-03-01T10:28:31;3.10;99.90
48376;DHT22;34178;50.904;11.560;2023-03-01T10:31:02;3.20;99.90
48376;DHT22;34178;50.904;11.560;2023-03-01T10:33:32;3.20;99.90
48376;DHT22;34178;50.904;11.560;2023-03-01T10:35:59;3.40;99.90
48376;DHT22;34178;50.904;11.560;2023-03-01T10:38:25;3.50;99.90
48376;DHT22;34178;50.904;11.560;2023-03-01T10:41:05;3.50;99.90
48376;DHT22;34178;50.904;11.560;2023-03-01T10:43:48;3.50;99.90
48376;DHT22;34178;50.904;11.560;2023-03-01T10:51:41;3.60;99.90
48376;DHT22;34178;50.904;11.560;2023-03-01T10:56:53;3.70;99.70
48376;DHT22;34178;50.904;11.560;2023-03-01T10:59:42;3.70;99.90
48376;DHT22;34178;50.904;11.560;2023-03-01T11:02:30;3.80;99.40
48376;DHT22;34178;50.904;11.560;2023-03-01T11:05:02;3.80;99.70
48376;DHT22;34178;50.904;11.560;2023-03-01T11:07:56;4.00;99.90
48376;DHT22;34178;50.904;11.560;2023-03-01T11:10:23;4.00;99.60
48376;DHT22;34178;50.904;11.560;2023-03-01T11:12:51;4.10;99.50
48376;DHT22;34178;50.904;11.560;2023-03-01T11:15:27;4.20;99.00
48376;DHT22;34178;50.904;11.560;2023-03-01T11:17:55;4.20;98.80
48376;DHT22;34178;50.904;11.560;2023-03-01T11:20:32;4.30;98.90
48376;DHT22;34178;50.904;11.560;2023-03-01T11:23:03;4.40;98.90
48376;DHT22;34178;50.904;11.560;2023-03-01T11:25:37;4.40;98.00
48376;DHT22;34178;50.904;11.560;2023-03-01T11:28:06;4.40;97.50
48376;DHT22;34178;50.904;11.560;2023-03-01T11:30:51;4.40;98.60
48376;DHT22;34178;50.904;11.560;2023-03-01T11:33:37;4.50;99.00
48376;DHT22;34178;50.904;11.560;2023-03-01T11:38:45;4.60;99.20
48376;DHT22;34178;50.904;11.560;2023-03-01T11:41:17;4.70;98.10
48376;DHT22;34178;50.904;11.560;2023-03-01T12:10:57;6.10;97.10
48376;DHT22;34178;50.904;11.560;2023-03-01T12:23:55;7.50;95.60
48376;DHT22;34178;50.904;11.560;2023-03-01T12:26:34;7.70;94.30
48376;DHT22;34178;50.904;11.560;2023-03-01T12:34:06;8.40;93.90
48376;DHT22;34178;50.904;11.560;2023-03-01T12:50:46;10.00;90.10
48376;DHT22;34178;50.904;11.560;2023-03-01T12:56:12;9.80;90.30
48376;DHT22;34178;50.904;11.560;2023-03-01T12:58:53;9.80;90.50
48376;DHT22;34178;50.904;11.560;2023-03-01T13:04:28;10.10;88.30
48376;DHT22;34178;50.904;11.560;2023-03-01T13:12:52;11.40;86.80
48376;DHT22;34178;50.904;11.560;2023-03-01T13:15:26;11.60;85.20
48376;DHT22;34178;50.904;11.560;2023-03-01T13:20:59;11.20;84.10
48376;DHT22;34178;50.904;11.560;2023-03-01T13:23:26;11.40;85.20
48376;DHT22;34178;50.904;11.560;2023-03-01T13:34:01;12.40;80.10
48376;DHT22;34178;50.904;11.560;2023-03-01T13:39:26;11.90;79.10
48376;DHT22;34178;50.904;11.560;2023-03-01T13:41:54;11.90;76.50
48376;DHT22;34178;50.904;11.560;2023-03-01T13:44:34;11.90;79.50
48376;DHT22;34178;50.904;11.560;2023-03-01T13:49:52;12.40;76.30
48376;DHT22;34178;50.904;11.560;2023-03-01T13:54:53;12.90;75.90
48376;DHT22;34178;50.904;11.560;2023-03-01T13:57:26;13.00;74.60
48376;DHT22;34178;50.904;11.560;2023-03-01T13:59:53;13.20;74.80
48376;DHT22;34178;50.904;11.560;2023-03-01T14:02:19;13.20;72.10
48376;DHT22;34178;50.904;11.560;2023-03-01T14:04:56;13.10;74.50
48376;DHT22;34178;50.904;11.560;2023-03-01T14:07:23;13.20;75.10
48376;DHT22;34178;50.904;11.560;2023-03-01T14:09:57;13.60;73.90
48376;DHT22;34178;50.904;11.560;2023-03-01T14:12:48;13.80;72.30
48376;DHT22;34178;50.904;11.560;2023-03-01T14:15:45;13.90;74.90
48376;DHT22;34178;50.904;11.560;2023-03-01T14:18:33;14.10;71.60
48376;DHT22;34178;50.904;11.560;2023-03-01T14:21:01;14.20;71.50
48376;DHT22;34178;50.904;11.560;2023-03-01T14:23:32;14.10;69.70
48376;DHT22;34178;50.904;11.560;2023-03-01T14:26:00;14.10;69.00
48376;DHT22;34178;50.904;11.560;2023-03-01T14:28:30;13.70;69.50
48376;DHT22;34178;50.904;11.560;2023-03-01T14:31:00;13.60;70.00
48376;DHT22;34178;50.904;11.560;2023-03-01T14:33:36;13.00;70.30
48376;DHT22;34178;50.904;11.560;2023-03-01T14:36:09;12.90;72.40
48376;DHT22;34178;50.904;11.560;2023-03-01T14:38:38;13.10;70.40
48376;DHT22;34178;50.904;11.560;2023-03-01T14:41:07;12.90;70.10
48376;DHT22;34178;50.904;11.560;2023-03-01T14:43:35;12.50;71.20
48376;DHT22;34178;50.904;11.560;2023-03-01T14:46:02;12.80;70.90
48376;DHT22;34178;50.904;11.560;2023-03-01T14:48:28;13.30;68.70
48376;DHT22;34178;50.904;11.560;2023-03-01T14:50:55;13.60;69.00
48376;DHT22;34178;50.904;11.560;2023-03-01T14:53:25;14.00;68.20
48376;DHT22;34178;50.904;11.560;2023-03-01T14:55:56;14.30;68.40
48376;DHT22;34178;50.904;11.560;2023-03-01T14:58:26;14.00;66.70
48376;DHT22;34178;50.904;11.560;2023-03-01T15:01:03;13.60;69.10
48376;DHT22;34178;50.904;11.560;2023-03-01T15:03:42;13.80;68.40
48376;DHT22;34178;50.904;11.560;2023-03-01T15:06:09;14.00;67.10
48376;DHT22;34178;50.904;11.560;2023-03-01T15:08:41;13.60;68.00
48376;DHT22;34178;50.904;11.560;2023-03-01T15:13:39;13.30;66.80
48376;DHT22;34178;50.904;11.560;2023-03-01T15:16:14;13.20;67.40
48376;DHT22;34178;50.904;11.560;2023-03-01T15:18:51;12.90;67.60
48376;DHT22;34178;50.904;11.560;2023-03-01T15:21:24;12.60;68.30
48376;DHT22;34178;50.904;11.560;2023-03-01T15:23:54;12.30;70.30
48376;DHT22;34178;50.904;11.560;2023-03-01T15:26:27;12.30;69.90
48376;DHT22;34178;50.904;11.560;2023-03-01T15:28:55;12.20;69.50
48376;DHT22;34178;50.904;11.560;2023-03-01T15:31:36;11.80;69.90
48376;DHT22;34178;50.904;11.560;2023-03-01T15:34:23;11.30;71.50
48376;DHT22;34178;50.904;11.560;2023-03-01T15:36:50;10.70;72.10
48376;DHT22;34178;50.904;11.560;2023-03-01T15:41:56;10.00;74.50
48376;DHT22;34178;50.904;11.560;2023-03-01T15:44:39;9.70;75.40
48376;DHT22;34178;50.904;11.560;2023-03-01T15:47:49;9.50;76.40
48376;DHT22;34178;50.904;11.560;2023-03-01T15:50:22;9.10;75.30
48376;DHT22;34178;50.904;11.560;2023-03-01T15:52:48;8.80;77.70
48376;DHT22;34178;50.904;11.560;2023-03-01T15:55:34;8.60;75.30
48376;DHT22;34178;50.904;11.560;2023-03-01T15:58:09;8.20;77.20
48376;DHT22;34178;50.904;11.560;2023-03-01T16:00:35;8.00;75.70
48376;DHT22;34178;50.904;11.560;2023-03-01T16:03:01;7.80;76.50
48376;DHT22;34178;50.904;11.560;2023-03-01T16:05:32;7.70;78.60
48376;DHT22;34178;50.904;11.560;2023-03-01T16:07:58;7.50;77.00
48376;DHT22;34178;50.904;11.560;2023-03-01T16:10:23;7.50;79.40
48376;DHT22;34178;50.904;11.560;2023-03-01T16:12:51;7.40;78.00
48376;DHT22;34178;50.904;11.560;2023-03-01T16:17:45;7.10;79.50
48376;DHT22;34178;50.904;11.560;2023-03-01T16:20:12;7.10;78.80
48376;DHT22;34178;50.904;11.560;2023-03-01T16:22:41;6.90;79.20
48376;DHT22;34178;50.904;11.560;2023-03-01T16:25:09;6.60;80.50
48376;DHT22;34178;50.904;11.560;2023-03-01T16:27:35;6.60;81.30
48376;DHT22;34178;50.904;11.560;2023-03-01T16:30:01;6.50;80.70
48376;DHT22;34178;50.904;11.560;2023-03-01T16:32:26;6.40;81.00
48376;DHT22;34178;50.904;11.560;2023-03-01T16:34:52;6.20;81.40
48376;DHT22;34178;50.904;11.560;2023-03-01T16:37:18;6.00;81.90
48376;DHT22;34178;50.904;11.560;2023-03-01T16:39:44;5.90;82.00
48376;DHT22;34178;50.904;11.560;2023-03-01T16:42:10;5.60;81.50
48376;DHT22;34178;50.904;11.560;2023-03-01T16:44:35;5.50;81.60
48376;DHT22;34178;50.904;11.560;2023-03-01T16:47:01;5.40;82.30
48376;DHT22;34178;50.904;11.560;2023-03-01T16:49:27;5.20;82.20
48376;DHT22;34178;50.904;11.560;2023-03-01T16:51:55;5.10;82.20
48376;DHT22;34178;50.904;11.560;2023-03-01T16:54:21;5.10;82.30
48376;DHT22;34178;50.904;11.560;2023-03-01T16:56:47;4.90;82.10
48376;DHT22;34178;50.904;11.560;2023-03-01T16:59:13;4.90;82.70
48376;DHT22;34178;50.904;11.560;2023-03-01T17:01:38;4.70;82.80
48376;DHT22;34178;50.904;11.560;2023-03-01T17:04:06;4.60;83.20
48376;DHT22;34178;50.904;11.560;2023-03-01T17:06:35;4.60;84.00
48376;DHT22;34178;50.904;11.560;2023-03-01T17:09:01;4.50;84.30
48376;DHT22;34178;50.904;11.560;2023-03-01T17:14:02;4.50;85.90
48376;DHT22;34178;50.904;11.560;2023-03-01T17:16:27;4.30;86.60
48376;DHT22;34178;50.904;11.560;2023-03-01T17:18:53;4.20;87.90
48376;DHT22;34178;50.904;11.560;2023-03-01T17:26:42;3.80;89.00
48376;DHT22;34178;50.904;11.560;2023-03-01T17:29:07;3.70;89.60
48376;DHT22;34178;50.904;11.560;2023-03-01T17:36:44;3.30;91.20
48376;DHT22;34178;50.904;11.560;2023-03-01T17:39:11;3.20;91.10
48376;DHT22;34178;50.904;11.560;2023-03-01T17:46:47;2.80;92.10
48376;DHT22;34178;50.904;11.560;2023-03-01T17:49:13;2.60;92.40
48376;DHT22;34178;50.904;11.560;2023-03-01T17:56:52;2.10;93.60
48376;DHT22;34178;50.904;11.560;2023-03-01T17:59:18;2.00;94.10
48376;DHT22;34178;50.904;11.560;2023-03-01T18:01:44;1.90;95.00